sensor_id;sensor_type;location;lat;lon;timestamp;P1;durP1;ratioP1;P2;durP2;ratioP2
44130;SDS011;29792;48.726;9.248;2023-06-14T00:00:38;8.85;;;4.00;;
44130;SDS011;29792;48.726;9.248;2023-06-14T00:03:07;6.80;;;4.20;;
44130;SDS011;29792;48.726;9.248;2023-06-14T00:05:37;4.00;;;3.25;;
44130;SDS011;29792;48.726;9.248;2023-06-14T00:08:08;6.10;;;3.63;;
44130;SDS011;29792;48.726;9.248;2023-06-14T00:10:34;5.95;;;3.90;;
44130;SDS011;29792;48.726;9.248;2023-06-14T00:13:03;5.65;;;4.05;;
44130;SDS011;29792;48.726;9.248;2023-06-14T00:15:32;4.43;;;3.33;;
44130;SDS011;29792;48.726;9.248;2023-06-14T00:17:58;4.80;;;3.17;;
44130;SDS011;29792;48.726;9.248;2023-06-14T00:20:26;3.45;;;2.97;;
44130;SDS011;29792;48.726;9.248;2023-06-14T00:22:52;4.88;;;3.53;;
44130;SDS011;29792;48.726;9.248;2023-06-14T00:25:20;3.70;;;3.00;;
44130;SDS011;29792;48.726;9.248;2023-06-14T00:27:45;5.97;;;4.20;;
44130;SDS011;29792;48.726;9.248;2023-06-14T00:30:11;4.38;;;3.72;;
44130;SDS011;29792;48.726;9.248;2023-06-14T00:32:36;5.22;;;3.88;;
44130;SDS011;29792;48.726;9.248;2023-06-14T00:35:02;3.75;;;3.15;;
44130;SDS011;29792;48.726;9.248;2023-06-14T00:37:27;5.90;;;4.20;;
44130;SDS011;29792;48.726;9.248;2023-06-14T00:39:52;5.55;;;3.28;;
44130;SDS011;29792;48.726;9.248;2023-06-14T00:42:24;9.48;;;4.18;;
44130;SDS011;29792;48.726;9.248;2023-06-14T00:44:52;5.40;;;3.83;;
44130;SDS011;29792;48.726;9.248;2023-06-14T00:47:18;5.38;;;4.07;;
44130;SDS011;29792;48.726;9.248;2023-06-14T00:49:47;6.57;;;4.38;;
44130;SDS011;29792;48.726;9.248;2023-06-14T00:52:14;5.55;;;4.20;;
44130;SDS011;29792;48.726;9.248;2023-06-14T00:54:41;6.07;;;4.63;;
44130;SDS011;29792;48.726;9.248;2023-06-14T00:57:07;6.00;;;4.40;;
44130;SDS011;29792;48.726;9.248;2023-06-14T00:59:33;5.03;;;3.80;;
44130;SDS011;29792;48.726;9.248;2023-06-14T01:02:03;6.85;;;4.18;;
44130;SDS011;29792;48.726;9.248;2023-06-14T01:04:29;4.20;;;3.80;;
44130;SDS011;29792;48.726;9.248;2023-06-14T01:07:07;6.50;;;5.22;;
44130;SDS011;29792;48.726;9.248;2023-06-14T01:09:48;4.55;;;3.78;;
44130;SDS011;29792;48.726;9.248;2023-06-14T01:12:58;4.15;;;3.53;;
44130;SDS011;29792;48.726;9.248;2023-06-14T01:15:23;5.13;;;3.13;;
44130;SDS011;29792;48.726;9.248;2023-06-14T01:17:50;4.15;;;3.75;;
44130;SDS011;29792;48.726;9.248;2023-06-14T01:20:19;4.53;;;3.45;;
44130;SDS011;29792;48.726;9.248;2023-06-14T01:22:53;6.45;;;3.85;;
44130;SDS011;29792;48.726;9.248;2023-06-14T01:25:19;5.10;;;3.22;;
44130;SDS011;29792;48.726;9.248;2023-06-14T01:27:46;5.35;;;3.78;;
44130;SDS011;29792;48.726;9.248;2023-06-14T01:30:14;5.25;;;3.53;;
44130;SDS011;29792;48.726;9.248;2023-06-14T01:32:40;4.13;;;3.38;;
44130;SDS011;29792;48.726;9.248;2023-06-14T01:35:06;4.88;;;4.15;;
44130;SDS011;29792;48.726;9.248;2023-06-14T01:37:31;5.35;;;3.30;;
44130;SDS011;29792;48.726;9.248;2023-06-14T01:39:57;8.23;;;4.10;;
44130;SDS011;29792;48.726;9.248;2023-06-14T01:42:23;5.22;;;3.72;;
44130;SDS011;29792;48.726;9.248;2023-06-14T01:44:49;5.22;;;3.78;;
44130;SDS011;29792;48.726;9.248;2023-06-14T01:47:18;5.22;;;4.10;;
44130;SDS011;29792;48.726;9.248;2023-06-14T01:49:44;4.97;;;4.20;;
44130;SDS011;29792;48.726;9.248;2023-06-14T01:52:11;4.85;;;3.63;;
44130;SDS011;29792;48.726;9.248;2023-06-14T01:54:37;5.78;;;3.80;;
44130;SDS011;29792;48.726;9.248;2023-06-14T01:57:06;6.10;;;4.15;;
44130;SDS011;29792;48.726;9.248;2023-06-14T01:59:32;5.25;;;3.88;;
44130;SDS011;29792;48.726;9.248;2023-06-14T02:01:59;5.00;;;3.80;;
44130;SDS011;29792;48.726;9.248;2023-06-14T02:04:25;5.32;;;4.03;;
44130;SDS011;29792;48.726;9.248;2023-06-14T02:06:50;3.95;;;3.55;;
44130;SDS011;29792;48.726;9.248;2023-06-14T02:09:15;4.97;;;4.13;;
44130;SDS011;29792;48.726;9.248;2023-06-14T02:11:40;4.40;;;3.97;;
44130;SDS011;29792;48.726;9.248;2023-06-14T02:14:06;5.85;;;4.13;;
44130;SDS011;29792;48.726;9.248;2023-06-14T02:16:32;7.60;;;4.25;;
44130;SDS011;29792;48.726;9.248;2023-06-14T02:18:57;4.78;;;3.30;;
44130;SDS011;29792;48.726;9.248;2023-06-14T02:21:23;6.45;;;3.92;;
44130;SDS011;29792;48.726;9.248;2023-06-14T02:23:48;6.88;;;3.85;;
44130;SDS011;29792;48.726;9.248;2023-06-14T02:26:13;6.32;;;4.38;;
44130;SDS011;29792;48.726;9.248;2023-06-14T02:28:38;5.13;;;3.90;;
44130;SDS011;29792;48.726;9.248;2023-06-14T02:31:04;6.40;;;4.00;;
44130;SDS011;29792;48.726;9.248;2023-06-14T02:33:29;8.30;;;4.97;;
44130;SDS011;29792;48.726;9.248;2023-06-14T02:35:54;4.38;;;3.85;;
44130;SDS011;29792;48.726;9.248;2023-06-14T02:38:21;18.95;;;4.93;;
44130;SDS011;29792;48.726;9.248;2023-06-14T02:40:46;10.57;;;4.25;;
44130;SDS011;29792;48.726;9.248;2023-06-14T02:43:11;8.35;;;4.00;;
44130;SDS011;29792;48.726;9.248;2023-06-14T02:45:37;5.60;;;3.45;;
44130;SDS011;29792;48.726;9.248;2023-06-14T02:48:02;5.50;;;4.05;;
44130;SDS011;29792;48.726;9.248;2023-06-14T02:50:27;4.80;;;3.65;;
44130;SDS011;29792;48.726;9.248;2023-06-14T02:52:54;4.13;;;3.72;;
44130;SDS011;29792;48.726;9.248;2023-06-14T02:55:21;6.32;;;4.28;;
44130;SDS011;29792;48.726;9.248;2023-06-14T02:57:47;4.15;;;3.58;;
44130;SDS011;29792;48.726;9.248;2023-06-14T03:00:13;3.25;;;2.95;;
44130;SDS011;29792;48.726;9.248;2023-06-14T03:02:39;5.57;;;3.17;;
44130;SDS011;29792;48.726;9.248;2023-06-14T03:05:04;4.57;;;3.47;;
44130;SDS011;29792;48.726;9.248;2023-06-14T03:07:31;5.25;;;3.33;;
44130;SDS011;29792;48.726;9.248;2023-06-14T03:09:57;4.07;;;3.10;;
44130;SDS011;29792;48.726;9.248;2023-06-14T03:12:22;7.43;;;4.25;;
44130;SDS011;29792;48.726;9.248;2023-06-14T03:14:48;4.13;;;3.65;;
44130;SDS011;29792;48.726;9.248;2023-06-14T03:17:15;4.22;;;3.30;;
44130;SDS011;29792;48.726;9.248;2023-06-14T03:19:42;8.95;;;3.92;;
44130;SDS011;29792;48.726;9.248;2023-06-14T03:22:07;9.23;;;4.28;;
44130;SDS011;29792;48.726;9.248;2023-06-14T03:24:33;4.38;;;3.70;;
44130;SDS011;29792;48.726;9.248;2023-06-14T03:27:01;4.47;;;3.85;;
44130;SDS011;29792;48.726;9.248;2023-06-14T03:29:27;6.18;;;3.50;;
44130;SDS011;29792;48.726;9.248;2023-06-14T03:31:59;4.70;;;3.03;;
44130;SDS011;29792;48.726;9.248;2023-06-14T03:36:53;5.13;;;3.33;;
44130;SDS011;29792;48.726;9.248;2023-06-14T03:39:18;17.85;;;5.07;;
44130;SDS011;29792;48.726;9.248;2023-06-14T03:41:44;5.68;;;4.03;;
44130;SDS011;29792;48.726;9.248;2023-06-14T03:44:09;9.20;;;4.22;;
44130;SDS011;29792;48.726;9.248;2023-06-14T03:46:35;7.10;;;4.40;;
44130;SDS011;29792;48.726;9.248;2023-06-14T03:49:00;5.65;;;3.70;;
44130;SDS011;29792;48.726;9.248;2023-06-14T03:51:27;9.73;;;4.18;;
44130;SDS011;29792;48.726;9.248;2023-06-14T03:53:53;5.70;;;4.15;;
44130;SDS011;29792;48.726;9.248;2023-06-14T03:56:19;6.35;;;4.30;;
44130;SDS011;29792;48.726;9.248;2023-06-14T03:58:44;19.15;;;6.25;;
44130;SDS011;29792;48.726;9.248;2023-06-14T04:01:10;5.32;;;4.75;;
44130;SDS011;29792;48.726;9.248;2023-06-14T04:03:39;8.35;;;4.93;;
44130;SDS011;29792;48.726;9.248;2023-06-14T04:06:05;10.15;;;5.38;;
44130;SDS011;29792;48.726;9.248;2023-06-14T04:08:31;5.95;;;5.10;;
44130;SDS011;29792;48.726;9.248;2023-06-14T04:10:56;7.20;;;5.43;;
44130;SDS011;29792;48.726;9.248;2023-06-14T04:13:21;7.50;;;5.40;;
44130;SDS011;29792;48.726;9.248;2023-06-14T04:15:47;8.68;;;5.97;;
44130;SDS011;29792;48.726;9.248;2023-06-14T04:18:12;10.00;;;6.75;;
44130;SDS011;29792;48.726;9.248;2023-06-14T04:20:37;8.13;;;5.47;;
44130;SDS011;29792;48.726;9.248;2023-06-14T04:23:16;6.20;;;4.82;;
44130;SDS011;29792;48.726;9.248;2023-06-14T04:25:46;6.03;;;4.68;;
44130;SDS011;29792;48.726;9.248;2023-06-14T04:28:12;7.28;;;4.07;;
44130;SDS011;29792;48.726;9.248;2023-06-14T04:30:40;6.50;;;5.20;;
44130;SDS011;29792;48.726;9.248;2023-06-14T04:33:06;5.60;;;3.50;;
44130;SDS011;29792;48.726;9.248;2023-06-14T04:35:31;6.88;;;4.80;;
44130;SDS011;29792;48.726;9.248;2023-06-14T04:37:57;8.55;;;5.43;;
44130;SDS011;29792;48.726;9.248;2023-06-14T04:40:24;5.60;;;4.03;;
44130;SDS011;29792;48.726;9.248;2023-06-14T04:42:49;4.93;;;4.43;;
44130;SDS011;29792;48.726;9.248;2023-06-14T04:45:15;5.30;;;3.85;;
44130;SDS011;29792;48.726;9.248;2023-06-14T04:47:41;4.82;;;3.47;;
44130;SDS011;29792;48.726;9.248;2023-06-14T04:50:07;5.22;;;4.72;;
44130;SDS011;29792;48.726;9.248;2023-06-14T04:52:32;5.38;;;4.60;;
44130;SDS011;29792;48.726;9.248;2023-06-14T04:54:57;4.43;;;4.03;;
44130;SDS011;29792;48.726;9.248;2023-06-14T04:57:24;5.50;;;3.70;;
44130;SDS011;29792;48.726;9.248;2023-06-14T04:59:50;5.93;;;3.78;;
44130;SDS011;29792;48.726;9.248;2023-06-14T05:02:19;5.82;;;4.15;;
44130;SDS011;29792;48.726;9.248;2023-06-14T05:04:45;8.80;;;4.38;;
44130;SDS011;29792;48.726;9.248;2023-06-14T05:07:12;4.50;;;3.67;;
44130;SDS011;29792;48.726;9.248;2023-06-14T05:09:39;6.78;;;4.70;;
44130;SDS011;29792;48.726;9.248;2023-06-14T05:12:04;8.63;;;3.95;;
44130;SDS011;29792;48.726;9.248;2023-06-14T05:14:33;6.35;;;4.05;;
44130;SDS011;29792;48.726;9.248;2023-06-14T05:16:59;5.00;;;3.80;;
44130;SDS011;29792;48.726;9.248;2023-06-14T05:19:25;5.72;;;4.47;;
44130;SDS011;29792;48.726;9.248;2023-06-14T05:21:50;5.20;;;3.65;;
44130;SDS011;29792;48.726;9.248;2023-06-14T05:24:16;5.05;;;3.95;;
44130;SDS011;29792;48.726;9.248;2023-06-14T05:26:42;5.68;;;3.42;;
44130;SDS011;29792;48.726;9.248;2023-06-14T05:29:08;4.82;;;4.00;;
44130;SDS011;29792;48.726;9.248;2023-06-14T05:31:33;4.78;;;4.10;;
44130;SDS011;29792;48.726;9.248;2023-06-14T05:33:58;4.72;;;4.15;;
44130;SDS011;29792;48.726;9.248;2023-06-14T05:36:24;4.05;;;3.33;;
44130;SDS011;29792;48.726;9.248;2023-06-14T05:38:49;6.57;;;4.25;;
44130;SDS011;29792;48.726;9.248;2023-06-14T05:41:16;6.60;;;4.43;;
44130;SDS011;29792;48.726;9.248;2023-06-14T05:43:41;4.05;;;3.63;;
44130;SDS011;29792;48.726;9.248;2023-06-14T05:46:07;5.18;;;3.60;;
44130;SDS011;29792;48.726;9.248;2023-06-14T05:48:32;5.03;;;3.47;;
44130;SDS011;29792;48.726;9.248;2023-06-14T05:50:57;5.95;;;4.30;;
44130;SDS011;29792;48.726;9.248;2023-06-14T05:53:23;6.50;;;4.85;;
44130;SDS011;29792;48.726;9.248;2023-06-14T05:55:50;6.13;;;4.50;;
44130;SDS011;29792;48.726;9.248;2023-06-14T05:58:19;6.40;;;3.80;;
44130;SDS011;29792;48.726;9.248;2023-06-14T06:00:45;6.65;;;4.55;;
44130;SDS011;29792;48.726;9.248;2023-06-14T06:03:10;7.95;;;4.05;;
44130;SDS011;29792;48.726;9.248;2023-06-14T06:05:36;4.95;;;4.28;;
44130;SDS011;29792;48.726;9.248;2023-06-14T06:08:01;5.15;;;4.18;;
44130;SDS011;29792;48.726;9.248;2023-06-14T06:10:26;3.92;;;3.33;;
44130;SDS011;29792;48.726;9.248;2023-06-14T06:12:52;4.50;;;3.72;;
44130;SDS011;29792;48.726;9.248;2023-06-14T06:15:19;8.30;;;4.70;;
44130;SDS011;29792;48.726;9.248;2023-06-14T06:17:44;9.70;;;3.78;;
44130;SDS011;29792;48.726;9.248;2023-06-14T06:20:10;5.85;;;4.50;;
44130;SDS011;29792;48.726;9.248;2023-06-14T06:22:36;5.32;;;4.43;;
44130;SDS011;29792;48.726;9.248;2023-06-14T06:25:02;6.55;;;3.92;;
44130;SDS011;29792;48.726;9.248;2023-06-14T06:27:27;4.15;;;3.53;;
44130;SDS011;29792;48.726;9.248;2023-06-14T06:29:53;7.05;;;4.28;;
44130;SDS011;29792;48.726;9.248;2023-06-14T06:32:18;7.50;;;4.13;;
44130;SDS011;29792;48.726;9.248;2023-06-14T06:34:43;6.88;;;3.83;;
44130;SDS011;29792;48.726;9.248;2023-06-14T06:37:09;4.82;;;3.60;;
44130;SDS011;29792;48.726;9.248;2023-06-14T06:39:34;4.68;;;2.92;;
44130;SDS011;29792;48.726;9.248;2023-06-14T06:41:59;4.20;;;3.28;;
44130;SDS011;29792;48.726;9.248;2023-06-14T06:44:25;4.68;;;3.38;;
44130;SDS011;29792;48.726;9.248;2023-06-14T06:46:50;5.50;;;3.20;;
44130;SDS011;29792;48.726;9.248;2023-06-14T06:49:15;6.68;;;3.42;;
44130;SDS011;29792;48.726;9.248;2023-06-14T06:51:41;8.55;;;3.85;;
44130;SDS011;29792;48.726;9.248;2023-06-14T06:54:07;4.85;;;3.70;;
44130;SDS011;29792;48.726;9.248;2023-06-14T06:56:33;4.45;;;3.35;;
44130;SDS011;29792;48.726;9.248;2023-06-14T06:58:58;6.13;;;3.38;;
44130;SDS011;29792;48.726;9.248;2023-06-14T07:01:24;4.88;;;3.50;;
44130;SDS011;29792;48.726;9.248;2023-06-14T07:03:49;6.70;;;3.38;;
44130;SDS011;29792;48.726;9.248;2023-06-14T07:06:14;4.97;;;3.08;;
44130;SDS011;29792;48.726;9.248;2023-06-14T07:08:43;5.32;;;4.00;;
44130;SDS011;29792;48.726;9.248;2023-06-14T07:11:08;4.72;;;2.85;;
44130;SDS011;29792;48.726;9.248;2023-06-14T07:13:34;5.72;;;3.10;;
44130;SDS011;29792;48.726;9.248;2023-06-14T07:15:59;5.32;;;3.15;;
44130;SDS011;29792;48.726;9.248;2023-06-14T07:18:25;5.95;;;3.38;;
44130;SDS011;29792;48.726;9.248;2023-06-14T07:20:51;4.38;;;3.40;;
44130;SDS011;29792;48.726;9.248;2023-06-14T07:23:17;5.43;;;3.65;;
44130;SDS011;29792;48.726;9.248;2023-06-14T07:25:42;5.60;;;3.40;;
44130;SDS011;29792;48.726;9.248;2023-06-14T07:28:07;6.65;;;3.03;;
44130;SDS011;29792;48.726;9.248;2023-06-14T07:30:32;8.77;;;3.88;;
44130;SDS011;29792;48.726;9.248;2023-06-14T07:32:58;4.35;;;2.95;;
44130;SDS011;29792;48.726;9.248;2023-06-14T07:35:23;4.15;;;2.90;;
44130;SDS011;29792;48.726;9.248;2023-06-14T07:37:48;3.75;;;2.58;;
44130;SDS011;29792;48.726;9.248;2023-06-14T07:40:15;4.55;;;3.17;;
44130;SDS011;29792;48.726;9.248;2023-06-14T07:42:40;4.55;;;3.25;;
44130;SDS011;29792;48.726;9.248;2023-06-14T07:45:05;3.97;;;2.80;;
44130;SDS011;29792;48.726;9.248;2023-06-14T07:47:31;3.97;;;2.95;;
44130;SDS011;29792;48.726;9.248;2023-06-14T07:49:57;4.38;;;2.95;;
44130;SDS011;29792;48.726;9.248;2023-06-14T07:52:23;6.28;;;4.00;;
44130;SDS011;29792;48.726;9.248;2023-06-14T07:54:48;5.80;;;3.65;;
44130;SDS011;29792;48.726;9.248;2023-06-14T07:57:13;5.55;;;3.13;;
44130;SDS011;29792;48.726;9.248;2023-06-14T07:59:39;15.15;;;4.10;;
44130;SDS011;29792;48.726;9.248;2023-06-14T08:02:04;27.50;;;6.18;;
44130;SDS011;29792;48.726;9.248;2023-06-14T08:04:29;4.15;;;3.40;;
44130;SDS011;29792;48.726;9.248;2023-06-14T08:06:54;4.70;;;3.38;;
44130;SDS011;29792;48.726;9.248;2023-06-14T08:09:20;4.70;;;3.20;;
44130;SDS011;29792;48.726;9.248;2023-06-14T08:11:45;4.68;;;3.45;;
44130;SDS011;29792;48.726;9.248;2023-06-14T08:14:10;4.65;;;2.63;;
44130;SDS011;29792;48.726;9.248;2023-06-14T08:16:36;3.55;;;3.15;;
44130;SDS011;29792;48.726;9.248;2023-06-14T08:19:02;4.88;;;2.67;;
44130;SDS011;29792;48.726;9.248;2023-06-14T08:21:27;7.88;;;3.85;;
44130;SDS011;29792;48.726;9.248;2023-06-14T08:23:54;5.05;;;2.58;;
44130;SDS011;29792;48.726;9.248;2023-06-14T08:26:19;3.70;;;2.97;;
44130;SDS011;29792;48.726;9.248;2023-06-14T08:28:45;5.70;;;3.00;;
44130;SDS011;29792;48.726;9.248;2023-06-14T08:31:11;4.20;;;3.65;;
44130;SDS011;29792;48.726;9.248;2023-06-14T08:33:36;5.10;;;2.95;;
44130;SDS011;29792;48.726;9.248;2023-06-14T08:36:01;4.32;;;3.03;;
44130;SDS011;29792;48.726;9.248;2023-06-14T08:38:27;3.55;;;2.63;;
44130;SDS011;29792;48.726;9.248;2023-06-14T08:40:52;3.13;;;2.83;;
44130;SDS011;29792;48.726;9.248;2023-06-14T08:43:21;5.22;;;3.42;;
44130;SDS011;29792;48.726;9.248;2023-06-14T08:45:47;5.05;;;4.28;;
44130;SDS011;29792;48.726;9.248;2023-06-14T08:48:14;3.55;;;2.95;;
44130;SDS011;29792;48.726;9.248;2023-06-14T08:50:42;4.65;;;2.92;;
44130;SDS011;29792;48.726;9.248;2023-06-14T08:53:11;5.00;;;2.72;;
44130;SDS011;29792;48.726;9.248;2023-06-14T08:55:44;3.67;;;3.20;;
44130;SDS011;29792;48.726;9.248;2023-06-14T08:58:10;4.45;;;3.95;;
44130;SDS011;29792;48.726;9.248;2023-06-14T09:00:39;4.78;;;4.05;;
44130;SDS011;29792;48.726;9.248;2023-06-14T09:03:06;4.55;;;2.92;;
44130;SDS011;29792;48.726;9.248;2023-06-14T09:05:38;5.25;;;3.63;;
44130;SDS011;29792;48.726;9.248;2023-06-14T09:08:03;4.85;;;3.50;;
44130;SDS011;29792;48.726;9.248;2023-06-14T09:10:30;3.42;;;3.00;;
44130;SDS011;29792;48.726;9.248;2023-06-14T09:12:58;3.17;;;2.88;;
44130;SDS011;29792;48.726;9.248;2023-06-14T09:15:26;4.15;;;3.22;;
44130;SDS011;29792;48.726;9.248;2023-06-14T09:17:51;21.73;;;4.07;;
44130;SDS011;29792;48.726;9.248;2023-06-14T09:20:16;6.25;;;2.67;;
44130;SDS011;29792;48.726;9.248;2023-06-14T09:22:43;4.78;;;3.10;;
44130;SDS011;29792;48.726;9.248;2023-06-14T09:25:09;3.42;;;2.50;;
44130;SDS011;29792;48.726;9.248;2023-06-14T09:27:35;3.15;;;2.75;;
44130;SDS011;29792;48.726;9.248;2023-06-14T09:30:04;4.70;;;3.05;;
44130;SDS011;29792;48.726;9.248;2023-06-14T09:32:35;4.45;;;3.20;;
44130;SDS011;29792;48.726;9.248;2023-06-14T09:35:02;6.50;;;4.22;;
44130;SDS011;29792;48.726;9.248;2023-06-14T09:37:30;4.93;;;3.88;;
44130;SDS011;29792;48.726;9.248;2023-06-14T09:39:57;6.97;;;3.83;;
44130;SDS011;29792;48.726;9.248;2023-06-14T09:42:23;2.92;;;2.58;;
44130;SDS011;29792;48.726;9.248;2023-06-14T09:44:50;3.22;;;2.50;;
44130;SDS011;29792;48.726;9.248;2023-06-14T09:47:17;4.22;;;3.42;;
44130;SDS011;29792;48.726;9.248;2023-06-14T09:49:43;7.57;;;3.65;;
44130;SDS011;29792;48.726;9.248;2023-06-14T09:52:12;3.53;;;2.92;;
44130;SDS011;29792;48.726;9.248;2023-06-14T09:54:40;3.63;;;2.50;;
44130;SDS011;29792;48.726;9.248;2023-06-14T09:57:08;2.88;;;2.58;;
44130;SDS011;29792;48.726;9.248;2023-06-14T09:59:36;2.75;;;2.38;;
44130;SDS011;29792;48.726;9.248;2023-06-14T10:02:06;6.00;;;3.10;;
44130;SDS011;29792;48.726;9.248;2023-06-14T10:04:37;3.63;;;2.72;;
44130;SDS011;29792;48.726;9.248;2023-06-14T10:07:11;6.15;;;3.28;;
44130;SDS011;29792;48.726;9.248;2023-06-14T10:09:40;5.43;;;2.53;;
44130;SDS011;29792;48.726;9.248;2023-06-14T10:12:09;2.80;;;2.25;;
44130;SDS011;29792;48.726;9.248;2023-06-14T10:14:35;5.68;;;2.35;;
44130;SDS011;29792;48.726;9.248;2023-06-14T10:17:05;3.60;;;2.30;;
44130;SDS011;29792;48.726;9.248;2023-06-14T10:19:44;3.45;;;2.13;;
44130;SDS011;29792;48.726;9.248;2023-06-14T10:22:26;4.22;;;2.50;;
44130;SDS011;29792;48.726;9.248;2023-06-14T10:24:57;7.03;;;3.47;;
44130;SDS011;29792;48.726;9.248;2023-06-14T10:27:22;4.43;;;3.72;;
44130;SDS011;29792;48.726;9.248;2023-06-14T10:32:21;6.78;;;3.25;;
44130;SDS011;29792;48.726;9.248;2023-06-14T10:34:58;4.22;;;2.95;;
44130;SDS011;29792;48.726;9.248;2023-06-14T10:37:24;7.53;;;3.45;;
44130;SDS011;29792;48.726;9.248;2023-06-14T10:39:50;4.63;;;2.33;;
44130;SDS011;29792;48.726;9.248;2023-06-14T10:42:15;3.17;;;2.03;;
44130;SDS011;29792;48.726;9.248;2023-06-14T10:44:50;2.35;;;2.03;;
44130;SDS011;29792;48.726;9.248;2023-06-14T10:47:31;2.88;;;2.58;;
44130;SDS011;29792;48.726;9.248;2023-06-14T10:50:03;3.95;;;3.00;;
44130;SDS011;29792;48.726;9.248;2023-06-14T10:52:32;4.40;;;2.83;;
44130;SDS011;29792;48.726;9.248;2023-06-14T10:57:47;3.95;;;3.15;;
44130;SDS011;29792;48.726;9.248;2023-06-14T11:00:16;2.65;;;2.40;;
44130;SDS011;29792;48.726;9.248;2023-06-14T11:08:18;2.72;;;2.45;;
44130;SDS011;29792;48.726;9.248;2023-06-14T11:11:14;4.07;;;2.53;;
44130;SDS011;29792;48.726;9.248;2023-06-14T11:13:41;5.18;;;3.45;;
44130;SDS011;29792;48.726;9.248;2023-06-14T11:16:12;2.70;;;2.47;;
44130;SDS011;29792;48.726;9.248;2023-06-14T11:18:38;5.53;;;2.72;;
44130;SDS011;29792;48.726;9.248;2023-06-14T11:21:04;4.85;;;2.70;;
44130;SDS011;29792;48.726;9.248;2023-06-14T11:23:29;4.75;;;2.80;;
44130;SDS011;29792;48.726;9.248;2023-06-14T11:25:54;3.55;;;3.20;;
44130;SDS011;29792;48.726;9.248;2023-06-14T11:28:19;4.35;;;3.28;;
44130;SDS011;29792;48.726;9.248;2023-06-14T11:30:46;4.82;;;2.53;;
44130;SDS011;29792;48.726;9.248;2023-06-14T11:33:16;4.80;;;3.28;;
44130;SDS011;29792;48.726;9.248;2023-06-14T11:35:45;3.28;;;2.33;;
44130;SDS011;29792;48.726;9.248;2023-06-14T11:38:11;7.63;;;3.13;;
44130;SDS011;29792;48.726;9.248;2023-06-14T11:40:37;3.55;;;2.40;;
44130;SDS011;29792;48.726;9.248;2023-06-14T11:43:03;4.05;;;2.33;;
44130;SDS011;29792;48.726;9.248;2023-06-14T11:45:29;2.97;;;2.40;;
44130;SDS011;29792;48.726;9.248;2023-06-14T11:47:55;4.63;;;2.63;;
44130;SDS011;29792;48.726;9.248;2023-06-14T11:50:21;4.10;;;2.90;;
44130;SDS011;29792;48.726;9.248;2023-06-14T11:52:52;2.63;;;2.00;;
44130;SDS011;29792;48.726;9.248;2023-06-14T11:55:18;2.08;;;1.88;;
44130;SDS011;29792;48.726;9.248;2023-06-14T11:57:46;3.47;;;2.47;;
44130;SDS011;29792;48.726;9.248;2023-06-14T12:00:11;4.90;;;2.97;;
44130;SDS011;29792;48.726;9.248;2023-06-14T12:02:37;4.72;;;3.42;;
44130;SDS011;29792;48.726;9.248;2023-06-14T12:05:04;11.32;;;2.85;;
44130;SDS011;29792;48.726;9.248;2023-06-14T12:07:32;4.20;;;2.28;;
44130;SDS011;29792;48.726;9.248;2023-06-14T12:12:26;5.67;;;2.33;;
44130;SDS011;29792;48.726;9.248;2023-06-14T12:14:52;3.65;;;2.78;;
44130;SDS011;29792;48.726;9.248;2023-06-14T12:17:18;15.48;;;4.00;;
44130;SDS011;29792;48.726;9.248;2023-06-14T12:19:44;4.32;;;2.28;;
44130;SDS011;29792;48.726;9.248;2023-06-14T12:22:11;4.43;;;2.75;;
44130;SDS011;29792;48.726;9.248;2023-06-14T12:24:37;3.47;;;2.25;;
44130;SDS011;29792;48.726;9.248;2023-06-14T12:27:05;3.95;;;2.63;;
44130;SDS011;29792;48.726;9.248;2023-06-14T12:29:31;4.38;;;3.55;;
44130;SDS011;29792;48.726;9.248;2023-06-14T12:31:57;2.90;;;2.67;;
44130;SDS011;29792;48.726;9.248;2023-06-14T12:34:23;3.08;;;2.45;;
44130;SDS011;29792;48.726;9.248;2023-06-14T12:36:52;7.43;;;3.20;;
44130;SDS011;29792;48.726;9.248;2023-06-14T12:39:18;4.82;;;2.33;;
44130;SDS011;29792;48.726;9.248;2023-06-14T12:41:44;7.57;;;3.00;;
44130;SDS011;29792;48.726;9.248;2023-06-14T12:44:12;6.03;;;2.85;;
44130;SDS011;29792;48.726;9.248;2023-06-14T12:46:38;4.68;;;2.63;;
44130;SDS011;29792;48.726;9.248;2023-06-14T12:49:04;4.20;;;2.50;;
44130;SDS011;29792;48.726;9.248;2023-06-14T12:51:34;4.88;;;3.08;;
44130;SDS011;29792;48.726;9.248;2023-06-14T12:53:59;3.22;;;2.90;;
44130;SDS011;29792;48.726;9.248;2023-06-14T12:56:25;5.47;;;2.50;;
44130;SDS011;29792;48.726;9.248;2023-06-14T12:58:51;4.20;;;2.75;;
44130;SDS011;29792;48.726;9.248;2023-06-14T13:01:16;4.43;;;2.78;;
44130;SDS011;29792;48.726;9.248;2023-06-14T13:03:43;4.88;;;1.90;;
44130;SDS011;29792;48.726;9.248;2023-06-14T13:06:09;3.55;;;2.72;;
44130;SDS011;29792;48.726;9.248;2023-06-14T13:08:34;5.68;;;2.10;;
44130;SDS011;29792;48.726;9.248;2023-06-14T13:10:59;4.22;;;2.67;;
44130;SDS011;29792;48.726;9.248;2023-06-14T13:13:25;4.30;;;2.67;;
44130;SDS011;29792;48.726;9.248;2023-06-14T13:15:50;5.85;;;2.63;;
44130;SDS011;29792;48.726;9.248;2023-06-14T13:18:16;3.47;;;2.90;;
44130;SDS011;29792;48.726;9.248;2023-06-14T13:20:41;8.05;;;3.00;;
44130;SDS011;29792;48.726;9.248;2023-06-14T13:23:07;2.97;;;1.77;;
44130;SDS011;29792;48.726;9.248;2023-06-14T13:25:33;2.40;;;1.88;;
44130;SDS011;29792;48.726;9.248;2023-06-14T13:27:59;2.70;;;2.45;;
44130;SDS011;29792;48.726;9.248;2023-06-14T13:30:24;4.30;;;2.65;;
44130;SDS011;29792;48.726;9.248;2023-06-14T13:32:50;4.03;;;3.03;;
44130;SDS011;29792;48.726;9.248;2023-06-14T13:35:17;4.50;;;3.13;;
44130;SDS011;29792;48.726;9.248;2023-06-14T13:37:43;3.90;;;2.80;;
44130;SDS011;29792;48.726;9.248;2023-06-14T13:40:08;2.67;;;2.28;;
44130;SDS011;29792;48.726;9.248;2023-06-14T13:42:34;2.13;;;1.92;;
44130;SDS011;29792;48.726;9.248;2023-06-14T13:45:00;3.17;;;2.05;;
44130;SDS011;29792;48.726;9.248;2023-06-14T13:47:26;5.07;;;2.67;;
44130;SDS011;29792;48.726;9.248;2023-06-14T13:49:51;11.52;;;3.15;;
44130;SDS011;29792;48.726;9.248;2023-06-14T13:52:16;6.90;;;3.10;;
44130;SDS011;29792;48.726;9.248;2023-06-14T13:54:41;2.60;;;2.40;;
44130;SDS011;29792;48.726;9.248;2023-06-14T13:57:07;3.25;;;2.35;;
44130;SDS011;29792;48.726;9.248;2023-06-14T13:59:32;3.97;;;2.30;;
44130;SDS011;29792;48.726;9.248;2023-06-14T14:01:58;3.70;;;2.15;;
44130;SDS011;29792;48.726;9.248;2023-06-14T14:04:23;4.38;;;2.50;;
44130;SDS011;29792;48.726;9.248;2023-06-14T14:06:48;6.40;;;2.60;;
44130;SDS011;29792;48.726;9.248;2023-06-14T14:09:14;7.80;;;2.92;;
44130;SDS011;29792;48.726;9.248;2023-06-14T14:11:39;3.83;;;2.47;;
44130;SDS011;29792;48.726;9.248;2023-06-14T14:14:06;3.30;;;1.85;;
44130;SDS011;29792;48.726;9.248;2023-06-14T14:16:31;7.60;;;2.17;;
44130;SDS011;29792;48.726;9.248;2023-06-14T14:18:57;4.10;;;2.30;;
44130;SDS011;29792;48.726;9.248;2023-06-14T14:21:22;6.40;;;2.60;;
44130;SDS011;29792;48.726;9.248;2023-06-14T14:23:47;4.55;;;2.28;;
44130;SDS011;29792;48.726;9.248;2023-06-14T14:26:14;5.43;;;3.10;;
44130;SDS011;29792;48.726;9.248;2023-06-14T14:28:40;2.75;;;2.53;;
44130;SDS011;29792;48.726;9.248;2023-06-14T14:31:05;3.03;;;2.72;;
44130;SDS011;29792;48.726;9.248;2023-06-14T14:33:31;6.50;;;2.40;;
44130;SDS011;29792;48.726;9.248;2023-06-14T14:35:56;2.92;;;2.72;;
44130;SDS011;29792;48.726;9.248;2023-06-14T14:38:21;2.60;;;2.40;;
44130;SDS011;29792;48.726;9.248;2023-06-14T14:40:46;5.93;;;2.28;;
44130;SDS011;29792;48.726;9.248;2023-06-14T14:43:12;4.03;;;1.92;;
44130;SDS011;29792;48.726;9.248;2023-06-14T14:45:37;4.75;;;3.08;;
44130;SDS011;29792;48.726;9.248;2023-06-14T14:48:03;4.03;;;2.28;;
44130;SDS011;29792;48.726;9.248;2023-06-14T14:50:28;3.05;;;2.13;;
44130;SDS011;29792;48.726;9.248;2023-06-14T14:52:54;2.88;;;2.53;;
44130;SDS011;29792;48.726;9.248;2023-06-14T14:55:19;2.83;;;1.92;;
44130;SDS011;29792;48.726;9.248;2023-06-14T14:57:45;2.67;;;2.42;;
44130;SDS011;29792;48.726;9.248;2023-06-14T15:00:11;6.75;;;2.33;;